createdAt,value
2022-10-18T00:02:16.189Z,97.65
2022-10-18T00:04:42.480Z,97.57
2022-10-18T00:07:08.726Z,97.61
2022-10-18T00:09:34.996Z,97.87
2022-10-18T00:12:01.260Z,97.60
2022-10-18T00:14:27.517Z,97.41
2022-10-18T00:16:53.771Z,96.90
2022-10-18T00:19:20.019Z,98.02
2022-10-18T00:21:46.278Z,97.76
2022-10-18T00:24:12.537Z,97.24
2022-10-18T00:26:38.818Z,96.88
2022-10-18T00:29:05.072Z,96.93
2022-10-18T00:31:31.338Z,97.03
2022-10-18T00:33:57.605Z,96.82
2022-10-18T00:36:23.872Z,96.97
2022-10-18T00:38:50.167Z,97.14
2022-10-18T00:41:16.583Z,97.29
2022-10-18T00:43:42.843Z,97.67
2022-10-18T00:46:09.099Z,97.54
2022-10-18T00:48:35.464Z,97.22
2022-10-18T00:51:01.727Z,97.32
2022-10-18T00:53:27.985Z,97.61
2022-10-18T00:55:54.230Z,98.66
2022-10-18T00:58:20.500Z,98.37
2022-10-18T01:00:46.764Z,97.88
2022-10-18T01:03:13.015Z,98.75
2022-10-18T01:05:39.302Z,99.25
2022-10-18T01:08:05.581Z,99.65
2022-10-18T01:10:31.887Z,98.79
2022-10-18T01:12:58.146Z,98.59
2022-10-18T01:15:24.407Z,99.72
2022-10-18T01:17:50.840Z,100.00
2022-10-18T01:20:17.103Z,99.53
2022-10-18T01:22:43.363Z,100.00
2022-10-18T01:25:09.622Z,100.00
2022-10-18T01:27:36.166Z,100.00
2022-10-18T01:30:02.472Z,100.00
2022-10-18T01:32:28.743Z,100.00
2022-10-18T01:34:55.006Z,100.00
2022-10-18T01:37:21.340Z,100.00
2022-10-18T01:39:47.914Z,100.00
2022-10-18T01:42:14.187Z,99.62
2022-10-18T01:44:40.446Z,99.41
2022-10-18T01:47:06.699Z,100.00
2022-10-18T01:49:33.376Z,99.89
2022-10-18T01:51:59.704Z,100.00
2022-10-18T01:54:25.986Z,100.00
2022-10-18T01:56:52.234Z,100.00
2022-10-18T01:59:18.516Z,100.00
2022-10-18T02:01:44.789Z,100.00
2022-10-18T02:04:11.035Z,100.00
2022-10-18T02:06:37.299Z,100.00
2022-10-18T02:09:03.572Z,100.00
2022-10-18T02:11:29.821Z,100.00
2022-10-18T02:13:56.098Z,100.00
2022-10-18T02:16:22.357Z,99.99
2022-10-18T02:18:48.635Z,99.74
2022-10-18T02:21:14.891Z,99.70
2022-10-18T02:23:41.147Z,99.84
2022-10-18T02:26:07.405Z,100.00
2022-10-18T02:28:33.677Z,100.00
2022-10-18T02:30:59.959Z,99.52
2022-10-18T02:33:26.219Z,98.99
2022-10-18T02:35:52.503Z,99.40
2022-10-18T02:38:18.737Z,100.00
2022-10-18T02:40:45.022Z,99.51
2022-10-18T02:43:11.303Z,98.17
2022-10-18T02:45:37.565Z,97.82
2022-10-18T02:48:03.826Z,98.86
2022-10-18T02:50:30.066Z,99.51
2022-10-18T02:52:56.312Z,100.00
2022-10-18T02:55:22.597Z,100.00
2022-10-18T02:57:48.884Z,100.00
2022-10-18T03:00:15.153Z,100.00
2022-10-18T03:02:41.401Z,100.00
2022-10-18T03:05:07.672Z,100.00
2022-10-18T03:07:34.195Z,100.00
2022-10-18T03:10:00.598Z,100.00
2022-10-18T03:12:26.847Z,100.00
2022-10-18T03:14:53.129Z,100.00
2022-10-18T03:17:19.393Z,100.00
2022-10-18T03:19:45.685Z,100.00
2022-10-18T03:22:11.950Z,100.00
2022-10-18T03:24:38.216Z,100.00
2022-10-18T03:27:04.478Z,100.00
2022-10-18T03:29:30.778Z,100.00
2022-10-18T03:31:57.030Z,100.00
2022-10-18T03:34:23.309Z,100.00
2022-10-18T03:36:49.643Z,100.00
2022-10-18T03:39:16.033Z,100.00
2022-10-18T03:41:42.314Z,100.00
2022-10-18T03:44:08.568Z,100.00
2022-10-18T03:46:34.841Z,100.00
2022-10-18T03:49:01.130Z,100.00
2022-10-18T03:51:27.432Z,100.00
2022-10-18T03:53:53.688Z,100.00
2022-10-18T03:56:19.968Z,100.00
2022-10-18T03:58:46.235Z,100.00
2022-10-18T04:01:12.597Z,100.00
2022-10-18T04:03:38.898Z,100.00
2022-10-18T04:06:05.220Z,99.79
2022-10-18T04:08:31.474Z,99.91
2022-10-18T04:10:57.774Z,100.00
2022-10-18T04:13:24.030Z,100.00
2022-10-18T04:15:50.311Z,100.00
2022-10-18T04:18:16.570Z,100.00
2022-10-18T04:20:42.825Z,100.00
2022-10-18T04:23:09.089Z,100.00
2022-10-18T04:25:35.371Z,100.00
2022-10-18T04:28:01.683Z,99.75
2022-10-18T04:30:27.936Z,99.59
2022-10-18T04:32:54.190Z,99.60
2022-10-18T04:35:24.323Z,99.22
2022-10-18T04:37:50.858Z,99.53
2022-10-18T04:40:17.125Z,99.46
2022-10-18T04:42:43.376Z,98.92
2022-10-18T04:45:09.631Z,98.81
2022-10-18T04:47:35.891Z,98.61
2022-10-18T04:50:02.148Z,98.38
2022-10-18T04:52:28.410Z,98.43
2022-10-18T04:54:54.667Z,98.32
2022-10-18T04:57:20.937Z,98.71
2022-10-18T04:59:47.212Z,98.74
2022-10-18T05:02:13.480Z,98.30
2022-10-18T05:04:39.739Z,98.40
2022-10-18T05:07:06.585Z,98.35
2022-10-18T05:09:32.858Z,98.11
2022-10-18T05:11:59.156Z,98.14
2022-10-18T05:14:25.410Z,98.31
2022-10-18T05:16:51.669Z,98.15
2022-10-18T05:19:17.986Z,97.89
2022-10-18T05:21:44.249Z,97.64
2022-10-18T05:24:10.498Z,97.55
2022-10-18T05:26:36.804Z,97.21
2022-10-18T05:29:03.115Z,97.23
2022-10-18T05:31:29.459Z,97.30
2022-10-18T05:33:55.744Z,96.98
2022-10-18T05:36:22.032Z,97.25
2022-10-18T05:38:48.360Z,97.18
2022-10-18T05:41:14.646Z,96.70
2022-10-18T05:43:40.955Z,96.54
2022-10-18T05:46:13.493Z,96.32
2022-10-18T05:48:41.333Z,96.11
2022-10-18T05:51:07.616Z,95.95
2022-10-18T05:53:37.999Z,95.92
2022-10-18T05:56:04.664Z,95.69
2022-10-18T05:58:30.927Z,95.83
2022-10-18T06:00:57.197Z,95.48
2022-10-18T06:03:23.443Z,95.34
2022-10-18T06:05:49.856Z,95.55
2022-10-18T06:08:16.122Z,95.71
2022-10-18T06:10:42.399Z,95.49
2022-10-18T06:13:08.654Z,95.57
2022-10-18T06:15:34.963Z,95.46
2022-10-18T06:18:01.206Z,95.20
2022-10-18T06:20:27.496Z,94.44
2022-10-18T06:22:53.781Z,94.27
2022-10-18T06:25:20.030Z,93.89
2022-10-18T06:27:46.335Z,93.79
2022-10-18T06:30:12.672Z,93.58
2022-10-18T06:32:38.914Z,93.77
2022-10-18T06:35:05.163Z,93.86
2022-10-18T06:37:31.704Z,93.91
2022-10-18T06:39:58.231Z,94.13
2022-10-18T06:42:24.491Z,94.15
2022-10-18T06:44:50.759Z,93.80
2022-10-18T06:47:17.047Z,93.47
2022-10-18T06:49:43.319Z,93.34
2022-10-18T06:52:09.581Z,93.55
2022-10-18T06:54:35.955Z,93.33
2022-10-18T06:57:02.671Z,93.26
2022-10-18T06:59:31.190Z,93.02
2022-10-18T07:01:57.928Z,92.26
2022-10-18T07:04:24.237Z,92.58
2022-10-18T07:06:50.486Z,91.79
2022-10-18T07:09:16.765Z,91.17
2022-10-18T07:11:43.013Z,91.09
2022-10-18T07:14:12.537Z,90.95
2022-10-18T07:16:41.863Z,90.77
2022-10-18T07:19:08.225Z,90.82
2022-10-18T07:21:34.467Z,90.59
2022-10-18T07:24:00.741Z,90.38
2022-10-18T07:26:27.273Z,90.11
2022-10-18T07:28:55.081Z,89.85
2022-10-18T07:31:21.416Z,90.52
2022-10-18T07:33:47.691Z,90.23
2022-10-18T07:36:13.971Z,89.74
2022-10-18T07:38:40.237Z,89.96
2022-10-18T07:41:06.866Z,89.17
2022-10-18T07:43:33.119Z,88.81
2022-10-18T07:45:59.401Z,88.66
2022-10-18T07:48:25.653Z,88.95
2022-10-18T07:50:51.911Z,89.24
2022-10-18T07:53:18.163Z,88.72
2022-10-18T07:55:44.720Z,88.71
2022-10-18T07:58:10.981Z,89.58
2022-10-18T08:00:37.231Z,89.56
2022-10-18T08:03:03.496Z,89.21
2022-10-18T08:05:29.905Z,89.47
2022-10-18T08:07:56.262Z,88.64
2022-10-18T08:10:22.518Z,89.01
2022-10-18T08:12:48.818Z,89.04
2022-10-18T08:15:15.077Z,89.01
2022-10-18T08:17:43.441Z,88.65
2022-10-18T08:20:12.255Z,88.98
2022-10-18T08:22:45.375Z,88.77
2022-10-18T08:25:11.636Z,88.65
2022-10-18T08:27:37.892Z,88.92
2022-10-18T08:30:04.147Z,88.77
2022-10-18T08:32:30.773Z,87.81
2022-10-18T08:34:57.202Z,87.91
2022-10-18T08:37:23.463Z,87.69
2022-10-18T08:39:49.710Z,87.50
2022-10-18T08:42:15.980Z,87.27
2022-10-18T08:44:42.224Z,88.53
2022-10-18T08:47:08.506Z,88.75
2022-10-18T08:49:34.850Z,88.90
2022-10-18T08:52:01.108Z,88.67
2022-10-18T08:54:27.398Z,89.54
2022-10-18T08:56:53.651Z,89.42
2022-10-18T08:59:23.286Z,90.00
2022-10-18T09:01:51.722Z,89.92
2022-10-18T09:04:17.975Z,89.35
2022-10-18T09:06:44.549Z,89.47
2022-10-18T09:09:10.809Z,89.29
2022-10-18T09:11:37.060Z,90.51
2022-10-18T09:14:03.371Z,90.60
2022-10-18T09:16:29.627Z,89.47
2022-10-18T09:18:57.259Z,89.95
2022-10-18T09:21:23.519Z,89.89
2022-10-18T09:23:49.820Z,89.60
2022-10-18T09:26:16.147Z,89.32
2022-10-18T09:28:42.469Z,88.82
2022-10-18T09:31:08.783Z,88.70
2022-10-18T09:33:35.069Z,88.06
2022-10-18T09:36:01.349Z,88.58
2022-10-18T09:38:27.666Z,88.36
2022-10-18T09:40:53.920Z,87.96
2022-10-18T09:43:20.199Z,87.56
2022-10-18T09:45:46.467Z,87.27
2022-10-18T09:48:12.756Z,86.81
2022-10-18T09:50:39.060Z,86.29
2022-10-18T09:53:06.393Z,86.07
2022-10-18T09:55:32.660Z,85.72
2022-10-18T09:57:58.940Z,85.85
2022-10-18T10:00:25.200Z,85.26
2022-10-18T10:02:51.494Z,85.12
2022-10-18T10:05:17.798Z,85.72
2022-10-18T10:07:44.070Z,85.11
2022-10-18T10:10:10.341Z,84.24
2022-10-18T10:12:36.630Z,85.17
2022-10-18T10:15:02.892Z,84.48
2022-10-18T10:17:29.712Z,84.69
2022-10-18T10:19:56.723Z,84.23
2022-10-18T10:22:22.986Z,84.15
2022-10-18T10:24:49.242Z,84.56
2022-10-18T10:27:15.611Z,84.39
2022-10-18T10:29:44.813Z,84.06
2022-10-18T10:32:11.347Z,84.87
2022-10-18T10:34:39.833Z,85.04
2022-10-18T10:37:08.652Z,85.65
2022-10-18T10:39:34.901Z,86.10
2022-10-18T10:42:01.233Z,85.50
2022-10-18T10:44:27.487Z,87.21
2022-10-18T10:46:54.723Z,86.60
2022-10-18T10:49:39.664Z,87.82
2022-10-18T10:52:08.876Z,87.74
2022-10-18T10:54:41.812Z,88.43
2022-10-18T10:57:12.416Z,89.19
2022-10-18T10:59:38.748Z,92.40
2022-10-18T11:02:05.025Z,94.78
2022-10-18T11:04:31.312Z,97.45
2022-10-18T11:06:57.931Z,97.47
2022-10-18T11:09:24.192Z,97.16
2022-10-18T11:11:50.525Z,97.74
2022-10-18T11:14:32.084Z,100.00
2022-10-18T11:16:58.362Z,100.00
2022-10-18T11:19:26.406Z,100.00
2022-10-18T11:21:54.659Z,100.00
2022-10-18T11:24:20.917Z,100.00
2022-10-18T11:26:50.019Z,100.00
2022-10-18T11:29:19.826Z,100.00
2022-10-18T11:31:46.098Z,100.00
2022-10-18T11:34:12.348Z,100.00
2022-10-18T11:36:45.375Z,100.00
2022-10-18T11:39:22.778Z,100.00
2022-10-18T11:41:49.193Z,99.82
2022-10-18T11:44:15.464Z,98.76
2022-10-18T11:46:41.739Z,98.95
2022-10-18T11:49:08.008Z,99.90
2022-10-18T11:51:50.289Z,100.00
2022-10-18T11:54:20.756Z,99.64
2022-10-18T11:56:47.007Z,100.00
2022-10-18T11:59:13.305Z,100.00
2022-10-18T12:01:39.571Z,100.00
2022-10-18T12:04:05.879Z,100.00
2022-10-18T12:06:32.126Z,100.00
2022-10-18T12:08:59.490Z,100.00
2022-10-18T12:11:25.770Z,100.00
2022-10-18T12:13:52.070Z,100.00
2022-10-18T12:16:18.331Z,100.00
2022-10-18T12:18:44.616Z,100.00
2022-10-18T12:21:10.932Z,100.00
2022-10-18T12:23:37.272Z,100.00
2022-10-18T12:26:03.550Z,100.00
2022-10-18T12:28:29.892Z,100.00
2022-10-18T12:30:56.206Z,100.00
2022-10-18T12:33:28.385Z,100.00
2022-10-18T12:35:55.181Z,100.00
2022-10-18T12:38:21.472Z,100.00
2022-10-18T12:40:48.063Z,100.00
2022-10-18T12:43:14.371Z,100.00
2022-10-18T12:45:40.620Z,100.00
2022-10-18T12:48:06.899Z,100.00
2022-10-18T12:50:34.673Z,100.00
2022-10-18T12:53:00.921Z,100.00
2022-10-18T12:55:27.274Z,100.00
2022-10-18T12:57:53.565Z,100.00
2022-10-18T13:00:19.833Z,100.00
2022-10-18T13:02:46.082Z,100.00
2022-10-18T13:05:21.290Z,100.00
2022-10-18T13:07:58.599Z,100.00
2022-10-18T13:10:24.903Z,100.00
2022-10-18T13:12:51.186Z,100.00
2022-10-18T13:15:26.993Z,100.00
2022-10-18T13:17:54.023Z,100.00
2022-10-18T13:20:25.993Z,100.00
2022-10-18T13:22:52.947Z,100.00
2022-10-18T13:25:19.211Z,100.00
2022-10-18T13:27:45.862Z,100.00
2022-10-18T13:30:12.330Z,100.00
2022-10-18T13:32:38.575Z,100.00
2022-10-18T13:35:04.847Z,100.00
2022-10-18T13:37:31.145Z,100.00
2022-10-18T13:39:57.426Z,100.00
2022-10-18T13:42:23.684Z,100.00
2022-10-18T13:44:49.997Z,100.00
2022-10-18T13:47:16.295Z,100.00
2022-10-18T13:49:42.542Z,100.00
2022-10-18T13:52:08.822Z,100.00
2022-10-18T13:54:35.084Z,100.00
2022-10-18T13:57:01.414Z,100.00
2022-10-18T13:59:27.705Z,99.94
2022-10-18T14:01:54.058Z,100.00
2022-10-18T14:04:20.369Z,99.68
2022-10-18T14:06:46.637Z,99.42
2022-10-18T14:09:25.750Z,100.00
2022-10-18T14:11:59.716Z,100.00
2022-10-18T14:14:26.594Z,99.52
2022-10-18T14:16:52.866Z,99.11
2022-10-18T14:19:19.127Z,98.94
2022-10-18T14:21:45.392Z,98.89
2022-10-18T14:24:11.666Z,99.25
2022-10-18T14:29:09.158Z,100.00
2022-10-18T14:31:35.529Z,100.00
2022-10-18T14:34:01.863Z,100.00
2022-10-18T14:36:28.193Z,100.00
2022-10-18T14:38:54.460Z,100.00
2022-10-18T14:41:20.723Z,100.00
2022-10-18T14:43:48.228Z,100.00
2022-10-18T14:46:14.503Z,100.00
2022-10-18T14:48:40.958Z,100.00
2022-10-18T14:51:07.219Z,100.00
2022-10-18T14:53:35.828Z,100.00
2022-10-18T14:56:04.022Z,100.00
2022-10-18T14:58:30.300Z,100.00
2022-10-18T15:00:56.660Z,100.00
2022-10-18T15:03:23.024Z,100.00
2022-10-18T15:05:49.283Z,100.00
2022-10-18T15:08:15.546Z,100.00
2022-10-18T15:10:41.798Z,100.00
2022-10-18T15:13:10.481Z,100.00
2022-10-18T15:15:37.300Z,100.00
2022-10-18T15:18:05.165Z,100.00
2022-10-18T15:20:31.860Z,100.00
2022-10-18T15:22:58.119Z,100.00
2022-10-18T15:25:27.938Z,100.00
2022-10-18T15:27:57.710Z,100.00
2022-10-18T15:30:24.497Z,100.00
2022-10-18T15:32:50.764Z,100.00
2022-10-18T15:35:18.503Z,100.00
2022-10-18T15:37:47.305Z,100.00
2022-10-18T15:40:13.778Z,100.00
2022-10-18T15:42:40.075Z,100.00
2022-10-18T15:45:06.344Z,100.00
2022-10-18T15:47:32.897Z,100.00
2022-10-18T15:49:59.365Z,100.00
2022-10-18T15:52:25.632Z,100.00
2022-10-18T15:54:51.903Z,100.00
2022-10-18T15:57:18.183Z,100.00
2022-10-18T15:59:44.448Z,100.00
2022-10-18T16:02:10.712Z,100.00
2022-10-18T16:04:36.972Z,100.00
2022-10-18T16:07:03.347Z,100.00
2022-10-18T16:09:29.597Z,100.00
2022-10-18T16:11:57.408Z,100.00
2022-10-18T16:14:23.763Z,100.00
2022-10-18T16:16:50.016Z,100.00
2022-10-18T16:19:18.559Z,100.00
2022-10-18T16:21:44.813Z,100.00
2022-10-18T16:24:11.064Z,100.00
2022-10-18T16:26:37.340Z,100.00
2022-10-18T16:29:03.657Z,100.00
2022-10-18T16:31:30.041Z,100.00
2022-10-18T16:33:56.321Z,100.00
2022-10-18T16:36:22.616Z,100.00
2022-10-18T16:38:48.904Z,100.00
2022-10-18T16:41:15.811Z,100.00
2022-10-18T16:43:42.131Z,100.00
2022-10-18T16:46:08.444Z,100.00
2022-10-18T16:48:34.789Z,100.00
2022-10-18T16:51:01.052Z,100.00
2022-10-18T16:53:27.894Z,100.00
2022-10-18T16:55:54.456Z,100.00
2022-10-18T16:58:20.853Z,100.00
2022-10-18T17:00:47.192Z,100.00
2022-10-18T17:03:13.447Z,100.00
2022-10-18T17:05:39.728Z,100.00
2022-10-18T17:08:05.971Z,100.00
2022-10-18T17:10:32.254Z,100.00
2022-10-18T17:12:58.572Z,100.00
2022-10-18T17:15:24.831Z,100.00
2022-10-18T17:17:51.127Z,100.00
2022-10-18T17:20:17.454Z,100.00
2022-10-18T17:22:43.715Z,100.00
2022-10-18T17:25:09.975Z,100.00
2022-10-18T17:27:36.256Z,100.00
2022-10-18T17:30:02.498Z,100.00
2022-10-18T17:32:28.796Z,100.00
2022-10-18T17:34:55.043Z,100.00
2022-10-18T17:37:21.295Z,100.00
2022-10-18T17:39:47.591Z,100.00
2022-10-18T17:42:13.854Z,100.00
2022-10-18T17:44:40.116Z,100.00
2022-10-18T17:47:06.405Z,100.00
2022-10-18T17:49:32.686Z,100.00
2022-10-18T17:52:01.158Z,100.00
2022-10-18T17:54:30.732Z,100.00
2022-10-18T17:56:57.003Z,100.00
2022-10-18T17:59:23.289Z,100.00
2022-10-18T18:01:49.559Z,100.00
2022-10-18T18:04:16.976Z,100.00
2022-10-18T18:06:45.267Z,100.00
2022-10-18T18:09:11.510Z,100.00
2022-10-18T18:11:37.974Z,100.00
2022-10-18T18:14:08.813Z,100.00
2022-10-18T18:16:35.356Z,100.00
2022-10-18T18:19:04.022Z,100.00
2022-10-18T18:21:31.368Z,100.00
2022-10-18T18:23:57.615Z,100.00
2022-10-18T18:26:23.915Z,100.00
2022-10-18T18:28:50.328Z,100.00
2022-10-18T18:31:16.687Z,100.00
2022-10-18T18:33:42.951Z,100.00
2022-10-18T18:36:09.265Z,100.00
2022-10-18T18:38:35.511Z,100.00
2022-10-18T18:41:01.768Z,100.00
2022-10-18T18:43:28.074Z,100.00
2022-10-18T18:45:54.402Z,100.00
2022-10-18T18:48:20.816Z,100.00
2022-10-18T18:50:51.750Z,100.00
2022-10-18T18:53:18.003Z,100.00
2022-10-18T18:55:44.303Z,100.00
2022-10-18T18:58:10.575Z,100.00
2022-10-18T19:00:40.393Z,100.00
2022-10-18T19:03:10.112Z,100.00
2022-10-18T19:05:36.507Z,100.00
2022-10-18T19:08:02.750Z,100.00
2022-10-18T19:10:29.007Z,100.00
2022-10-18T19:12:55.258Z,100.00
2022-10-18T19:15:21.507Z,100.00
2022-10-18T19:17:47.792Z,100.00
2022-10-18T19:20:15.184Z,100.00
2022-10-18T19:22:41.473Z,100.00
2022-10-18T19:25:07.898Z,100.00
2022-10-18T19:27:34.409Z,100.00
2022-10-18T19:30:01.014Z,100.00
2022-10-18T19:34:58.458Z,100.00
2022-10-18T19:37:24.716Z,100.00
2022-10-18T19:39:50.995Z,100.00
2022-10-18T19:42:20.513Z,100.00
2022-10-18T19:44:50.492Z,100.00
2022-10-18T19:47:16.747Z,100.00
2022-10-18T19:49:43.125Z,100.00
2022-10-18T19:52:09.378Z,100.00
2022-10-18T19:54:35.702Z,100.00
2022-10-18T19:57:01.947Z,100.00
2022-10-18T19:59:28.239Z,100.00
2022-10-18T20:01:54.571Z,100.00
2022-10-18T20:04:20.828Z,100.00
2022-10-18T20:06:47.712Z,100.00
2022-10-18T20:09:17.676Z,100.00
2022-10-18T20:11:46.765Z,100.00
2022-10-18T20:14:13.030Z,100.00
2022-10-18T20:16:39.351Z,100.00
2022-10-18T20:19:05.708Z,100.00
2022-10-18T20:21:35.399Z,100.00
2022-10-18T20:24:01.656Z,100.00
2022-10-18T20:26:27.918Z,100.00
2022-10-18T20:28:58.060Z,100.00
2022-10-18T20:31:24.567Z,100.00
2022-10-18T20:33:50.817Z,100.00
2022-10-18T20:36:17.072Z,100.00
2022-10-18T20:38:43.332Z,100.00
2022-10-18T20:41:09.575Z,100.00
2022-10-18T20:43:35.846Z,100.00
2022-10-18T20:46:02.101Z,100.00
2022-10-18T20:48:28.351Z,100.00
2022-10-18T20:50:54.600Z,100.00
2022-10-18T20:53:22.204Z,100.00
2022-10-18T20:55:48.496Z,100.00
2022-10-18T20:58:14.743Z,100.00
2022-10-18T21:00:40.996Z,100.00
2022-10-18T21:03:07.406Z,100.00
2022-10-18T21:05:33.720Z,100.00
2022-10-18T21:07:59.990Z,100.00
2022-10-18T21:10:26.242Z,100.00
2022-10-18T21:12:52.499Z,100.00
2022-10-18T21:15:18.750Z,100.00
2022-10-18T21:17:44.998Z,100.00
2022-10-18T21:20:11.264Z,100.00
2022-10-18T21:22:37.525Z,100.00
2022-10-18T21:25:03.771Z,100.00
2022-10-18T21:27:30.058Z,100.00
2022-10-18T21:29:56.302Z,100.00
2022-10-18T21:32:22.546Z,100.00
2022-10-18T21:34:48.791Z,100.00
2022-10-18T21:37:15.068Z,100.00
2022-10-18T21:39:42.230Z,100.00
2022-10-18T21:42:08.733Z,100.00
2022-10-18T21:44:35.001Z,100.00
2022-10-18T21:47:01.266Z,100.00
2022-10-18T21:49:29.040Z,100.00
2022-10-18T21:51:55.293Z,100.00
2022-10-18T21:54:21.542Z,100.00
2022-10-18T21:56:47.812Z,100.00
2022-10-18T21:59:14.084Z,100.00
2022-10-18T22:01:40.339Z,100.00
2022-10-18T22:04:06.632Z,100.00
2022-10-18T22:09:04.829Z,100.00
2022-10-18T22:11:31.070Z,100.00
2022-10-18T22:13:57.388Z,100.00
2022-10-18T22:16:23.659Z,100.00
2022-10-18T22:18:49.924Z,100.00
2022-10-18T22:21:16.263Z,100.00
2022-10-18T22:23:42.532Z,100.00
2022-10-18T22:26:08.865Z,100.00
2022-10-18T22:28:35.153Z,100.00
2022-10-18T22:31:01.451Z,100.00
2022-10-18T22:33:27.748Z,100.00
2022-10-18T22:35:54.049Z,100.00
2022-10-18T22:38:20.297Z,100.00
2022-10-18T22:40:46.647Z,100.00
2022-10-18T22:43:12.907Z,100.00
2022-10-18T22:45:39.187Z,100.00
2022-10-18T22:48:05.442Z,100.00
2022-10-18T22:50:31.719Z,100.00
2022-10-18T22:52:57.980Z,100.00
2022-10-18T22:55:24.245Z,100.00
2022-10-18T22:57:50.496Z,100.00
2022-10-18T23:00:16.749Z,100.00
2022-10-18T23:02:43.040Z,100.00
2022-10-18T23:05:09.299Z,100.00
2022-10-18T23:07:35.622Z,100.00
2022-10-18T23:10:01.884Z,100.00
2022-10-18T23:12:28.156Z,100.00
2022-10-18T23:14:54.418Z,100.00
2022-10-18T23:17:20.680Z,100.00
2022-10-18T23:19:46.921Z,100.00
2022-10-18T23:22:14.883Z,100.00
2022-10-18T23:24:41.062Z,100.00
2022-10-18T23:27:07.321Z,100.00
2022-10-18T23:29:33.576Z,100.00
2022-10-18T23:31:59.878Z,100.00
2022-10-18T23:34:26.129Z,100.00
2022-10-18T23:36:52.416Z,100.00
2022-10-18T23:39:18.673Z,100.00
2022-10-18T23:41:44.928Z,100.00
2022-10-18T23:44:11.433Z,100.00
2022-10-18T23:46:37.683Z,100.00
2022-10-18T23:49:03.981Z,100.00
2022-10-18T23:51:30.387Z,100.00
2022-10-18T23:53:56.655Z,100.00
2022-10-18T23:56:22.906Z,100.00
2022-10-18T23:58:49.349Z,100.00
